Time;durP1;ratioP1;P1;durP2;ratioP2;P2;SDS_P1;SDS_P2;PMS_P1;PMS_P2;Temp;Humidity;BMP_temperature;BMP_pressure;BME280_temperature;BME280_humidity;BME280_pressure;Samples;Min_cycle;Max_cycle;Signal;HPM_P1;HPM_P2
2021/08/20 00:00:15;;;;;;;45.50;29.75;;;13.00;99.90;;;;;;4209558;28;20447;-76
2021/08/20 00:02:16;;;;;;;42.95;29.38;;;13.00;99.90;;;;;;4210728;28;20119;-76
2021/08/20 00:04:16;;;;;;;45.05;29.48;;;13.10;99.90;;;;;;4192723;28;20150;-76
2021/08/20 00:06:17;;;;;;;43.83;30.40;;;13.10;99.90;;;;;;4190008;28;20036;-76
2021/08/20 00:08:18;;;;;;;50.75;30.70;;;13.10;99.90;;;;;;4208196;28;20055;-77
2021/08/20 00:10:18;;;;;;;49.65;30.30;;;13.20;99.90;;;;;;4192309;28;20144;-76
2021/08/20 00:12:19;;;;;;;46.63;30.50;;;13.20;99.90;;;;;;4209403;28;20063;-76
2021/08/20 00:14:20;;;;;;;56.10;32.80;;;13.20;99.90;;;;;;4194396;28;20771;-76
2021/08/20 00:16:21;;;;;;;45.50;31.13;;;13.30;99.90;;;;;;4204770;28;20126;-76
2021/08/20 00:18:22;;;;;;;42.97;31.08;;;13.30;99.90;;;;;;4210063;28;20052;-76
2021/08/20 00:20:22;;;;;;;47.03;31.55;;;13.30;99.90;;;;;;4212337;28;20036;-76
2021/08/20 00:22:23;;;;;;;45.25;31.25;;;13.20;99.90;;;;;;4205857;28;20039;-76
2021/08/20 00:24:24;;;;;;;48.03;31.52;;;13.20;99.90;;;;;;4191469;28;20087;-76
2021/08/20 00:26:24;;;;;;;46.15;29.90;;;13.30;99.90;;;;;;4189057;28;20028;-76
2021/08/20 00:28:25;;;;;;;46.38;31.23;;;13.30;99.90;;;;;;4209436;28;20033;-76
2021/08/20 00:30:26;;;;;;;50.25;32.05;;;13.40;99.90;;;;;;4189531;28;20488;-75
2021/08/20 00:32:26;;;;;;;47.65;31.00;;;13.40;99.90;;;;;;4209410;28;20040;-77
2021/08/20 00:34:27;;;;;;;48.50;31.58;;;13.40;99.90;;;;;;4206660;28;20115;-77
2021/08/20 00:36:29;;;;;;;45.58;31.77;;;13.40;99.90;;;;;;4193548;28;20068;-76
2021/08/20 00:38:30;;;;;;;48.28;31.88;;;13.50;99.90;;;;;;4207169;28;20066;-76
2021/08/20 00:40:32;;;;;;;45.90;30.48;;;13.50;99.90;;;;;;4191173;28;20047;-76
2021/08/20 00:42:33;;;;;;;50.13;30.92;;;13.50;99.90;;;;;;4208892;28;20032;-77
2021/08/20 00:44:34;;;;;;;46.17;31.27;;;;;;;;;;4211026;28;20028;-76
2021/08/20 00:46:36;;;;;;;50.97;33.90;;;13.50;99.90;;;;;;4195702;28;20123;-77
2021/08/20 00:48:38;;;;;;;52.88;31.98;;;13.50;99.90;;;;;;4194070;28;20035;-76
2021/08/20 00:50:39;;;;;;;54.13;30.58;;;13.50;99.90;;;;;;4212817;28;20115;-76
2021/08/20 00:52:40;;;;;;;45.47;30.10;;;13.60;99.90;;;;;;4206541;28;20044;-76
2021/08/20 00:54:40;;;;;;;50.90;30.58;;;13.60;99.90;;;;;;4209758;28;20047;-76
2021/08/20 00:56:42;;;;;;;42.72;31.42;;;13.60;99.90;;;;;;4211160;28;20032;-76
2021/08/20 00:58:44;;;;;;;43.05;30.70;;;13.60;99.90;;;;;;4196702;28;20056;-76
2021/08/20 01:00:44;;;;;;;41.80;29.60;;;13.50;99.90;;;;;;4207370;28;20511;-75
2021/08/20 01:02:45;;;;;;;43.97;30.38;;;13.50;99.90;;;;;;4213869;28;20032;-76
2021/08/20 01:04:46;;;;;;;44.45;30.17;;;13.40;99.90;;;;;;4190300;28;20406;-76
2021/08/20 01:06:47;;;;;;;43.08;30.35;;;13.40;99.90;;;;;;4212414;28;20115;-76
2021/08/20 01:08:48;;;;;;;52.70;30.45;;;13.40;99.90;;;;;;4210253;28;20031;-76
2021/08/20 01:10:52;;;;;;;44.95;31.00;;;13.40;99.90;;;;;;4213019;28;20047;-76
2021/08/20 01:12:53;;;;;;;46.70;30.95;;;13.40;99.90;;;;;;4193408;28;20086;-76
2021/08/20 01:14:53;;;;;;;49.55;33.90;;;13.40;99.90;;;;;;4188834;28;20028;-76
2021/08/20 01:16:54;;;;;;;47.13;31.13;;;13.50;99.90;;;;;;4209950;28;20125;-76
2021/08/20 01:18:55;;;;;;;43.67;29.23;;;13.50;99.90;;;;;;4214898;28;20070;-76
2021/08/20 01:20:58;;;;;;;42.35;30.73;;;13.30;99.90;;;;;;4196975;28;20043;-76
2021/08/20 01:22:58;;;;;;;45.70;30.10;;;13.30;99.90;;;;;;4203545;28;20361;-76
2021/08/20 01:25:00;;;;;;;45.80;29.67;;;13.30;99.90;;;;;;4208309;28;20039;-76
2021/08/20 01:27:01;;;;;;;45.53;30.85;;;13.30;99.90;;;;;;4191679;28;20441;-75
2021/08/20 01:29:01;;;;;;;42.15;31.60;;;13.30;99.90;;;;;;4193861;28;20028;-76
2021/08/20 01:31:05;;;;;;;45.15;29.33;;;13.30;99.90;;;;;;4209891;28;20119;-76
2021/08/20 01:33:07;;;;;;;48.13;30.98;;;13.30;99.90;;;;;;4212404;28;20047;-76
2021/08/20 01:35:08;;;;;;;46.88;30.95;;;13.40;99.90;;;;;;4209285;28;20041;-75
2021/08/20 01:37:09;;;;;;;46.30;30.88;;;13.40;99.90;;;;;;4194200;28;20029;-76
2021/08/20 01:39:09;;;;;;;45.97;31.75;;;13.40;99.90;;;;;;4210470;28;20048;-77
2021/08/20 01:41:10;;;;;;;41.00;29.35;;;13.40;99.90;;;;;;4212412;28;20028;-76
2021/08/20 01:43:10;;;;;;;46.50;28.80;;;13.40;99.90;;;;;;4211251;28;20049;-77
2021/08/20 01:45:11;;;;;;;47.30;31.50;;;13.50;99.90;;;;;;4211762;28;20032;-76
2021/08/20 01:47:12;;;;;;;45.25;30.40;;;13.40;99.90;;;;;;4212269;28;20036;-76
2021/08/20 01:49:13;;;;;;;42.38;29.73;;;13.50;99.90;;;;;;4211930;28;20043;-76
2021/08/20 01:51:14;;;;;;;45.00;30.50;;;13.50;99.90;;;;;;4213480;28;20044;-76
2021/08/20 01:53:15;;;;;;;46.50;29.73;;;13.60;99.90;;;;;;4212302;28;20028;-76
2021/08/20 01:55:16;;;;;;;44.97;31.13;;;13.60;99.90;;;;;;4195562;28;20481;-76
2021/08/20 01:57:16;;;;;;;43.65;28.80;;;13.60;99.90;;;;;;4194275;28;20132;-76
2021/08/20 01:59:17;;;;;;;46.08;30.27;;;13.60;99.90;;;;;;4188283;28;20419;-76
2021/08/20 02:01:18;;;;;;;44.10;30.05;;;13.60;99.90;;;;;;4195801;28;20507;-76
2021/08/20 02:03:18;;;;;;;48.22;32.10;;;13.50;99.90;;;;;;4208178;28;20046;-76
2021/08/20 02:05:19;;;;;;;44.25;30.15;;;13.50;99.90;;;;;;4212512;28;20039;-76
2021/08/20 02:07:19;;;;;;;48.55;31.08;;;13.50;99.90;;;;;;4207130;28;20431;-76
2021/08/20 02:09:20;;;;;;;48.80;31.30;;;13.40;99.90;;;;;;4207790;28;20028;-76
2021/08/20 02:11:20;;;;;;;50.45;32.13;;;13.30;99.90;;;;;;4208113;28;20071;-76
2021/08/20 02:13:22;;;;;;;45.47;31.63;;;13.20;99.90;;;;;;4212109;28;20044;-77
2021/08/20 02:15:22;;;;;;;45.72;30.25;;;13.10;99.90;;;;;;4208737;28;20517;-76
2021/08/20 02:17:23;;;;;;;54.72;32.75;;;13.10;99.90;;;;;;4196300;28;20123;-76
2021/08/20 02:19:24;;;;;;;52.30;31.63;;;13.00;99.90;;;;;;4210310;28;20479;-76
2021/08/20 02:21:25;;;;;;;52.42;32.95;;;;;;;;;;4211642;28;20090;-76
2021/08/20 02:23:25;;;;;;;50.50;32.85;;;12.90;99.90;;;;;;4211974;28;20071;-76
2021/08/20 02:25:26;;;;;;;57.35;33.38;;;12.90;99.90;;;;;;4186344;28;20033;-76
2021/08/20 02:27:26;;;;;;;57.33;34.78;;;12.90;99.90;;;;;;4209628;28;20537;-76
2021/08/20 02:29:27;;;;;;;55.75;32.90;;;12.90;99.90;;;;;;4206165;28;20033;-76
2021/08/20 02:31:28;;;;;;;63.22;35.10;;;12.90;99.90;;;;;;4210877;28;20376;-76
2021/08/20 02:33:28;;;;;;;59.10;35.47;;;13.00;99.90;;;;;;4211514;28;20519;-76
2021/08/20 02:35:29;;;;;;;63.35;37.75;;;13.00;99.90;;;;;;4195517;28;20052;-77
2021/08/20 02:37:29;;;;;;;61.80;36.20;;;13.10;99.90;;;;;;4212907;28;20032;-76
2021/08/20 02:39:32;;;;;;;62.60;35.08;;;13.10;99.90;;;;;;4211294;28;20028;-77
2021/08/20 02:41:32;;;;;;;64.22;36.45;;;13.30;99.90;;;;;;4188150;28;20051;-77
2021/08/20 02:43:33;;;;;;;58.03;35.40;;;13.30;99.90;;;;;;4194743;28;20040;-76
2021/08/20 02:45:34;;;;;;;61.30;38.40;;;13.30;99.90;;;;;;4206376;28;20097;-76
2021/08/20 02:47:34;;;;;;;63.45;37.10;;;13.40;99.90;;;;;;4207643;28;20051;-75
2021/08/20 02:49:35;;;;;;;62.10;34.92;;;;;;;;;;4206832;28;20028;-76
2021/08/20 02:51:36;;;;;;;58.17;34.00;;;13.60;99.90;;;;;;4209162;28;20048;-76
2021/08/20 02:53:37;;;;;;;60.17;36.13;;;13.60;99.90;;;;;;4208200;28;20094;-76
2021/08/20 02:55:37;;;;;;;57.75;34.95;;;13.60;99.90;;;;;;4210795;28;20082;-76
2021/08/20 02:57:38;;;;;;;58.60;35.10;;;13.70;99.90;;;;;;4209501;28;20036;-76
2021/08/20 02:59:39;;;;;;;59.33;33.33;;;13.70;99.90;;;;;;4194880;28;20037;-76
2021/08/20 03:01:39;;;;;;;50.70;32.97;;;13.70;99.90;;;;;;4193778;28;20044;-76
2021/08/20 03:03:40;;;;;;;55.63;34.30;;;13.80;99.90;;;;;;4205397;28;20024;-76
2021/08/20 03:05:41;;;;;;;51.10;33.50;;;13.80;99.90;;;;;;4193387;28;20063;-76
2021/08/20 03:07:42;;;;;;;57.22;32.78;;;13.80;99.90;;;;;;4210940;28;20043;-76
2021/08/20 03:09:42;;;;;;;57.65;35.05;;;13.80;99.90;;;;;;4209826;28;20070;-76
2021/08/20 03:11:43;;;;;;;57.88;34.80;;;13.70;99.90;;;;;;4193644;28;20044;-76
2021/08/20 03:13:43;;;;;;;55.95;33.45;;;13.70;99.90;;;;;;4188829;28;20037;-76
2021/08/20 03:15:44;;;;;;;56.55;34.58;;;13.70;99.90;;;;;;4211878;28;20081;-76
2021/08/20 03:17:45;;;;;;;56.40;34.60;;;13.80;99.90;;;;;;4208377;28;20036;-76
2021/08/20 03:19:46;;;;;;;58.22;34.90;;;13.80;99.90;;;;;;4193008;28;20051;-76
2021/08/20 03:21:46;;;;;;;56.97;34.45;;;13.80;99.90;;;;;;4208970;28;20032;-76
2021/08/20 03:23:47;;;;;;;54.50;34.42;;;13.80;99.90;;;;;;4200273;28;20426;-75
2021/08/20 03:25:47;;;;;;;52.72;34.38;;;13.80;99.90;;;;;;4210072;28;20029;-76
2021/08/20 03:27:48;;;;;;;52.65;34.45;;;13.80;99.90;;;;;;4187609;28;20458;-76
2021/08/20 03:29:49;;;;;;;55.50;34.05;;;13.80;99.90;;;;;;4212108;28;20028;-76
2021/08/20 03:31:49;;;;;;;54.00;34.28;;;13.70;99.90;;;;;;4203463;28;20050;-76
2021/08/20 03:33:50;;;;;;;55.17;35.42;;;13.80;99.90;;;;;;4210958;28;20039;-76
2021/08/20 03:35:50;;;;;;;53.42;34.53;;;13.80;99.90;;;;;;4208851;28;20032;-76
2021/08/20 03:37:51;;;;;;;61.90;36.70;;;13.90;99.90;;;;;;4194084;28;20515;-76
2021/08/20 03:39:52;;;;;;;58.15;35.83;;;14.00;99.90;;;;;;4209725;28;20170;-75
2021/08/20 03:41:52;;;;;;;55.95;35.80;;;14.00;99.90;;;;;;4211078;28;20234;-76
2021/08/20 03:43:53;;;;;;;52.17;33.13;;;14.10;99.90;;;;;;4210878;28;20392;-76
2021/08/20 03:45:54;;;;;;;54.85;35.00;;;14.10;99.90;;;;;;4211393;28;20060;-76
2021/08/20 03:47:54;;;;;;;58.15;33.78;;;14.00;99.90;;;;;;4202842;28;20059;-76
2021/08/20 03:49:55;;;;;;;56.00;34.75;;;14.00;99.90;;;;;;4193168;28;20111;-76
2021/08/20 03:51:55;;;;;;;62.25;36.83;;;14.00;99.90;;;;;;4206591;28;20506;-76
2021/08/20 03:53:56;;;;;;;57.13;34.92;;;14.10;99.90;;;;;;4208684;28;20020;-77
2021/08/20 03:55:57;;;;;;;60.38;35.92;;;14.20;99.90;;;;;;4206435;28;20020;-76
2021/08/20 03:57:58;;;;;;;56.53;34.35;;;14.20;99.90;;;;;;4194330;28;20144;-76
2021/08/20 03:59:58;;;;;;;53.03;35.47;;;14.20;99.90;;;;;;4189942;28;20039;-76
2021/08/20 04:02:04;;;;;;;54.30;36.72;;;14.20;99.90;;;;;;4211447;28;20078;-76
2021/08/20 04:04:04;;;;;;;57.17;34.90;;;14.30;99.90;;;;;;4207685;28;20085;-76
2021/08/20 04:06:09;;;;;;;52.10;32.53;;;14.30;99.90;;;;;;4209019;28;20021;-76
2021/08/20 04:08:09;;;;;;;51.90;34.35;;;14.40;99.90;;;;;;4189592;28;20097;-76
2021/08/20 04:10:10;;;;;;;51.95;34.70;;;14.30;99.90;;;;;;4212490;28;20024;-76
2021/08/20 04:12:11;;;;;;;55.92;34.15;;;14.30;99.90;;;;;;4207690;28;20039;-76
2021/08/20 04:14:11;;;;;;;52.85;33.05;;;14.30;99.90;;;;;;4204258;28;20107;-76
2021/08/20 04:16:12;;;;;;;48.15;32.00;;;14.20;99.90;;;;;;4210827;28;20554;-76
2021/08/20 04:18:13;;;;;;;59.72;34.65;;;14.20;99.90;;;;;;4206909;28;20033;-77
2021/08/20 04:20:13;;;;;;;53.70;34.47;;;14.20;99.90;;;;;;4211417;28;20035;-76
2021/08/20 04:22:14;;;;;;;54.58;34.88;;;14.20;99.90;;;;;;4214497;28;20035;-77
2021/08/20 04:24:15;;;;;;;64.10;37.10;;;14.30;99.90;;;;;;4213672;28;20115;-76
2021/08/20 04:26:15;;;;;;;57.63;36.45;;;14.40;99.90;;;;;;4191952;28;20443;-75
2021/08/20 04:28:16;;;;;;;66.35;37.78;;;14.50;99.90;;;;;;4196549;28;20043;-76
2021/08/20 04:30:18;;;;;;;57.78;36.35;;;14.50;99.90;;;;;;4212980;28;20475;-76
2021/08/20 04:32:19;;;;;;;56.00;35.38;;;14.50;99.90;;;;;;4213920;28;20036;-76
2021/08/20 04:34:19;;;;;;;57.05;35.63;;;14.60;99.90;;;;;;4213740;28;20034;-76
2021/08/20 04:36:20;;;;;;;61.67;36.33;;;14.70;99.90;;;;;;4213662;28;20035;-76
2021/08/20 04:38:20;;;;;;;59.75;36.50;;;14.70;99.90;;;;;;4206969;28;20044;-76
2021/08/20 04:40:21;;;;;;;55.30;35.67;;;14.80;99.90;;;;;;4213993;28;20108;-77
2021/08/20 04:42:22;;;;;;;58.47;38.25;;;14.80;99.90;;;;;;4208732;28;20032;-76
2021/08/20 04:44:22;;;;;;;59.22;36.53;;;14.80;99.90;;;;;;4214493;28;20055;-77
2021/08/20 04:46:24;;;;;;;63.88;38.30;;;14.90;99.90;;;;;;4207141;28;20036;-75
2021/08/20 04:48:25;;;;;;;60.67;36.13;;;14.90;99.90;;;;;;4214621;28;21901;-77
2021/08/20 04:50:29;;;;;;;57.28;34.35;;;14.90;99.90;;;;;;4211212;28;20032;-76
2021/08/20 04:52:29;;;;;;;52.58;33.47;;;15.00;99.90;;;;;;4195865;28;20047;-76
2021/08/20 04:54:30;;;;;;;48.50;33.75;;;15.10;99.90;;;;;;4196003;28;20032;-76
2021/08/20 04:56:31;;;;;;;52.83;34.33;;;15.10;99.90;;;;;;4208023;28;20047;-76
2021/08/20 04:58:31;;;;;;;53.10;36.28;;;15.20;99.90;;;;;;4192361;28;20033;-76
2021/08/20 05:00:32;;;;;;;50.65;35.30;;;15.20;99.90;;;;;;4215565;28;20040;-76
2021/08/20 05:02:33;;;;;;;49.00;34.83;;;15.30;99.90;;;;;;4213114;28;20036;-76
2021/08/20 05:04:36;;;;;;;52.70;36.25;;;15.30;99.90;;;;;;4208072;28;20067;-76
2021/08/20 05:06:38;;;;;;;53.40;34.65;;;15.30;99.90;;;;;;4213927;28;20032;-76
2021/08/20 05:08:40;;;;;;;52.13;35.97;;;15.30;99.90;;;;;;4207341;28;20448;-76
2021/08/20 05:10:40;;;;;;;46.25;36.30;;;15.30;99.90;;;;;;4213470;28;20278;-76
2021/08/20 05:12:41;;;;;;;53.17;35.47;;;15.40;99.90;;;;;;4192336;28;20050;-76
2021/08/20 05:14:42;;;;;;;47.03;32.33;;;15.40;99.90;;;;;;4196103;28;20043;-76
2021/08/20 05:16:44;;;;;;;50.53;34.25;;;15.40;99.90;;;;;;4210116;28;20778;-76
2021/08/20 05:18:45;;;;;;;51.93;34.93;;;15.40;99.90;;;;;;4212866;28;20032;-77
2021/08/20 05:20:45;;;;;;;50.00;33.35;;;15.40;99.90;;;;;;4210974;28;20282;-76
2021/08/20 05:22:49;;;;;;;49.90;34.22;;;15.50;99.90;;;;;;4213868;28;20487;-77
2021/08/20 05:24:49;;;;;;;50.78;34.58;;;15.50;99.90;;;;;;4214068;28;20036;-76
2021/08/20 05:26:50;;;;;;;49.38;33.33;;;15.50;99.90;;;;;;4212897;28;20386;-76
2021/08/20 05:28:52;;;;;;;48.83;32.38;;;15.50;99.90;;;;;;4206907;28;20050;-76
2021/08/20 05:30:53;;;;;;;46.00;33.42;;;15.50;99.90;;;;;;4208251;28;20032;-75
2021/08/20 05:32:53;;;;;;;47.25;32.53;;;15.40;99.90;;;;;;4210185;28;20075;-76
2021/08/20 05:34:54;;;;;;;53.53;32.10;;;15.40;99.90;;;;;;4206470;28;20032;-76
2021/08/20 05:36:54;;;;;;;46.35;33.65;;;15.40;99.90;;;;;;4192190;28;20041;-77
2021/08/20 05:38:55;;;;;;;45.78;30.98;;;15.50;99.90;;;;;;4214080;28;20144;-76
2021/08/20 05:40:55;;;;;;;51.67;32.88;;;15.40;99.90;;;;;;4212466;28;20398;-76
2021/08/20 05:42:57;;;;;;;45.88;32.58;;;15.40;99.90;;;;;;4212676;28;20038;-76
2021/08/20 05:44:58;;;;;;;50.90;34.53;;;15.50;99.90;;;;;;4208330;28;20044;-76
2021/08/20 05:46:58;;;;;;;44.53;33.63;;;15.50;99.90;;;;;;4212453;28;20119;-76
2021/08/20 05:49:03;;;;;;;53.40;34.22;;;15.60;99.90;;;;;;4208829;28;20101;-77
2021/08/20 05:51:04;;;;;;;41.78;30.85;;;15.70;99.90;;;;;;4210537;28;20034;-76
2021/08/20 05:53:04;;;;;;;44.63;32.78;;;15.80;99.90;;;;;;4192312;28;20127;-76
2021/08/20 05:55:06;;;;;;;43.15;30.45;;;15.90;99.90;;;;;;4212920;28;20020;-76
2021/08/20 05:57:07;;;;;;;41.22;29.30;;;15.90;99.90;;;;;;4211871;28;20084;-76
2021/08/20 05:59:08;;;;;;;42.83;29.35;;;16.00;99.90;;;;;;4211970;28;20036;-75
2021/08/20 06:01:08;;;;;;;37.15;30.85;;;16.10;99.90;;;;;;4193517;28;20491;-76
2021/08/20 06:03:09;;;;;;;40.38;29.80;;;16.10;99.90;;;;;;4213767;28;20028;-76
2021/08/20 06:05:10;;;;;;;37.03;29.23;;;16.20;99.90;;;;;;4212354;28;20035;-76
2021/08/20 06:07:12;;;;;;;35.58;28.95;;;16.30;99.90;;;;;;4212882;28;20372;-76
2021/08/20 06:09:12;;;;;;;41.67;30.88;;;16.30;99.90;;;;;;4210987;28;20036;-77
2021/08/20 06:11:13;;;;;;;39.20;26.88;;;16.30;99.90;;;;;;4191934;28;20049;-77
2021/08/20 06:13:16;;;;;;;35.78;28.50;;;16.30;99.90;;;;;;4209151;28;20066;-77
2021/08/20 06:15:17;;;;;;;38.42;29.02;;;16.40;99.90;;;;;;4204823;28;20033;-77
2021/08/20 06:17:18;;;;;;;39.63;29.30;;;16.40;99.90;;;;;;4209034;28;20496;-77
2021/08/20 06:19:18;;;;;;;40.55;29.80;;;16.50;99.90;;;;;;4206042;28;20396;-77
2021/08/20 06:21:19;;;;;;;37.58;29.05;;;16.60;99.90;;;;;;4211104;28;20368;-76
2021/08/20 06:23:21;;;;;;;40.47;29.25;;;16.50;99.90;;;;;;4212655;28;20044;-76
2021/08/20 06:25:21;;;;;;;37.38;28.30;;;16.50;99.90;;;;;;4193354;28;20036;-75
2021/08/20 06:27:22;;;;;;;37.00;27.45;;;16.60;99.90;;;;;;4190925;28;20048;-76
2021/08/20 06:29:22;;;;;;;33.88;26.90;;;16.60;99.90;;;;;;4194355;28;20036;-75
2021/08/20 06:31:23;;;;;;;34.28;27.40;;;16.70;99.90;;;;;;4210376;28;20040;-76
2021/08/20 06:33:23;;;;;;;35.17;28.45;;;16.80;99.90;;;;;;4212200;28;20059;-76
2021/08/20 06:35:24;;;;;;;34.03;26.75;;;16.90;99.90;;;;;;4194897;28;20040;-76
2021/08/20 06:37:25;;;;;;;31.27;27.40;;;17.00;99.90;;;;;;4212855;28;20417;-76
2021/08/20 06:39:26;;;;;;;33.30;25.85;;;17.00;99.90;;;;;;4211328;28;20161;-76
2021/08/20 06:41:26;;;;;;;36.42;25.77;;;17.00;99.90;;;;;;4206107;28;20035;-76
2021/08/20 06:43:27;;;;;;;36.38;28.52;;;17.10;99.90;;;;;;4206777;28;20122;-76
2021/08/20 06:45:27;;;;;;;34.60;28.33;;;17.20;99.90;;;;;;4190696;28;20075;-76
2021/08/20 06:47:28;;;;;;;33.88;26.58;;;17.20;99.90;;;;;;4207135;28;20064;-76
2021/08/20 06:49:28;;;;;;;32.60;27.48;;;17.30;99.90;;;;;;4209537;28;20506;-76
2021/08/20 06:51:29;;;;;;;33.17;25.98;;;17.50;99.90;;;;;;4190115;28;20475;-76
2021/08/20 06:53:30;;;;;;;31.75;25.45;;;17.60;99.90;;;;;;4211527;28;20040;-75
2021/08/20 06:55:32;;;;;;;30.85;26.27;;;17.60;99.90;;;;;;4192111;28;20629;-75
2021/08/20 06:57:33;;;;;;;32.60;26.42;;;17.60;99.90;;;;;;4212606;28;20035;-76
2021/08/20 06:59:36;;;;;;;33.50;25.35;;;;;;;;;;4210346;28;20479;-76
2021/08/20 07:01:37;;;;;;;30.25;23.90;;;17.70;99.90;;;;;;4182896;28;20045;-75
2021/08/20 07:03:38;;;;;;;29.77;23.38;;;17.80;99.90;;;;;;4210683;28;20117;-76
2021/08/20 07:05:38;;;;;;;33.33;25.52;;;17.90;99.90;;;;;;4205215;28;20101;-76
2021/08/20 07:07:40;;;;;;;27.15;22.38;;;18.00;99.90;;;;;;4192415;28;20033;-77
2021/08/20 07:09:40;;;;;;;29.63;24.45;;;18.10;99.90;;;;;;4210117;28;20064;-76
2021/08/20 07:11:41;;;;;;;30.50;24.08;;;18.20;99.90;;;;;;4193838;28;20036;-76
2021/08/20 07:13:42;;;;;;;28.38;22.27;;;18.20;99.90;;;;;;4187815;28;20066;-76
2021/08/20 07:15:42;;;;;;;30.38;21.50;;;18.30;99.90;;;;;;4210302;28;20032;-76
2021/08/20 07:17:43;;;;;;;29.05;22.77;;;18.40;99.90;;;;;;4208489;28;20122;-76
2021/08/20 07:19:43;;;;;;;27.75;23.02;;;18.40;99.90;;;;;;4192732;28;20040;-76
2021/08/20 07:21:44;;;;;;;27.27;21.75;;;18.50;99.90;;;;;;4212001;28;20031;-75
2021/08/20 07:23:45;;;;;;;26.83;22.27;;;18.50;99.90;;;;;;4211392;28;20048;-77
2021/08/20 07:25:45;;;;;;;23.77;19.77;;;18.50;99.90;;;;;;4211141;28;20024;-76
2021/08/20 07:27:46;;;;;;;25.27;20.17;;;18.60;99.90;;;;;;4203116;28;20059;-77
2021/08/20 07:29:47;;;;;;;20.42;17.80;;;18.80;99.90;;;;;;4211855;28;20533;-77
2021/08/20 07:31:48;;;;;;;24.90;18.50;;;19.00;99.90;;;;;;4195223;28;20040;-76
2021/08/20 07:33:49;;;;;;;21.83;18.30;;;19.10;99.90;;;;;;4210955;28;20040;-76
2021/08/20 07:35:49;;;;;;;23.60;19.83;;;19.20;99.90;;;;;;4208266;28;20043;-77
2021/08/20 07:37:50;;;;;;;22.77;19.42;;;19.40;99.90;;;;;;4188979;28;20060;-77
2021/08/20 07:39:50;;;;;;;23.63;18.88;;;19.50;99.90;;;;;;4212175;28;20884;-77
2021/08/20 07:41:51;;;;;;;23.75;18.83;;;19.60;99.90;;;;;;4193760;28;20040;-77
2021/08/20 07:43:52;;;;;;;23.73;18.10;;;19.60;99.90;;;;;;4211901;28;20040;-77
2021/08/20 07:45:52;;;;;;;24.58;18.25;;;19.60;99.90;;;;;;4190381;28;20028;-77
2021/08/20 07:47:53;;;;;;;21.20;18.38;;;19.60;99.90;;;;;;4194340;28;20560;-77
2021/08/20 07:49:54;;;;;;;22.45;18.33;;;19.70;99.90;;;;;;4209574;28;20044;-77
2021/08/20 07:51:55;;;;;;;21.83;18.23;;;19.70;99.90;;;;;;4211736;28;20094;-76
2021/08/20 07:53:55;;;;;;;22.35;17.90;;;19.80;99.90;;;;;;4183513;28;20352;-76
2021/08/20 07:55:57;;;;;;;19.58;17.55;;;19.90;99.90;;;;;;4207058;28;20400;-76
2021/08/20 07:57:58;;;;;;;19.65;17.38;;;20.00;99.90;;;;;;4192042;28;20048;-76
2021/08/20 07:59:59;;;;;;;19.40;16.25;;;20.10;99.90;;;;;;4189633;28;20029;-76
2021/08/20 08:01:59;;;;;;;21.10;18.90;;;20.30;99.90;;;;;;4208868;28;20035;-76
2021/08/20 08:04:00;;;;;;;18.05;15.98;;;20.20;99.90;;;;;;4208426;28;20035;-76
2021/08/20 08:06:00;;;;;;;18.80;16.33;;;20.40;99.90;;;;;;4209812;28;20453;-76
2021/08/20 08:08:01;;;;;;;18.38;16.48;;;20.50;99.90;;;;;;4208909;28;20060;-75
2021/08/20 08:10:03;;;;;;;18.90;16.90;;;20.50;99.90;;;;;;4209930;28;20036;-76
2021/08/20 08:12:04;;;;;;;18.95;16.55;;;20.50;99.90;;;;;;4210017;28;20123;-76
2021/08/20 08:14:08;;;;;;;18.55;16.58;;;20.50;99.90;;;;;;4209661;28;20085;-76
2021/08/20 08:16:08;;;;;;;17.23;15.40;;;20.50;99.90;;;;;;4210198;28;20444;-76
2021/08/20 08:18:09;;;;;;;18.52;16.70;;;20.50;99.90;;;;;;4210589;28;20031;-76
2021/08/20 08:20:12;;;;;;;17.65;15.85;;;20.60;99.90;;;;;;4184453;28;21544;-76
2021/08/20 08:22:13;;;;;;;17.98;16.08;;;20.60;99.90;;;;;;4205588;28;20032;-76
2021/08/20 08:24:14;;;;;;;17.63;15.80;;;20.50;99.90;;;;;;4205592;28;20036;-77
2021/08/20 08:26:14;;;;;;;17.75;15.18;;;20.50;99.90;;;;;;4210554;28;20062;-77
2021/08/20 08:28:15;;;;;;;29.50;24.35;;;20.40;99.90;;;;;;4188885;28;20028;-76
2021/08/20 08:30:16;;;;;;;22.65;18.55;;;20.40;99.90;;;;;;4210198;28;20480;-75
2021/08/20 08:32:16;;;;;;;19.77;17.77;;;20.50;99.90;;;;;;4207712;28;20039;-75
2021/08/20 08:34:17;;;;;;;17.88;15.38;;;20.80;99.90;;;;;;4210436;28;20030;-76
2021/08/20 08:36:18;;;;;;;17.75;15.95;;;21.20;99.90;;;;;;4189931;28;20553;-76
2021/08/20 08:38:19;;;;;;;18.33;15.73;;;21.30;99.90;;;;;;4211190;28;20033;-75
2021/08/20 08:40:19;;;;;;;16.02;14.43;;;21.50;99.90;;;;;;4186869;28;20056;-76
2021/08/20 08:42:20;;;;;;;17.88;16.08;;;21.60;99.90;;;;;;4209261;28;20048;-77
2021/08/20 08:44:21;;;;;;;19.27;16.73;;;21.50;99.90;;;;;;4208160;28;20025;-74
2021/08/20 08:46:23;;;;;;;18.35;16.55;;;21.50;99.90;;;;;;4205606;28;20071;-75
2021/08/20 08:48:24;;;;;;;18.67;16.87;;;21.30;99.90;;;;;;4210102;28;20049;-74
2021/08/20 08:50:25;;;;;;;18.65;16.88;;;21.20;99.90;;;;;;4190388;28;20290;-74
2021/08/20 08:52:25;;;;;;;17.88;16.25;;;21.00;99.90;;;;;;4190847;28;20036;-77
2021/08/20 08:54:26;;;;;;;17.48;15.77;;;21.00;99.90;;;;;;4207322;28;20035;-77
2021/08/20 08:56:27;;;;;;;19.58;17.52;;;20.90;99.90;;;;;;4208597;28;20040;-77
2021/08/20 08:58:27;;;;;;;18.73;16.80;;;21.00;99.90;;;;;;4212355;28;20487;-77
2021/08/20 09:00:34;;;;;;;19.45;17.38;;;21.10;99.90;;;;;;4191797;28;20151;-74
2021/08/20 09:02:35;;;;;;;20.38;18.27;;;21.20;99.90;;;;;;4204791;28;20040;-75
2021/08/20 09:04:36;;;;;;;19.17;17.38;;;21.00;99.90;;;;;;4192577;28;20399;-76
2021/08/20 09:06:44;;;;;;;20.88;18.90;;;21.00;99.90;;;;;;4194882;28;20055;-75
2021/08/20 09:09:02;;;;;;;19.33;17.52;;;21.10;99.90;;;;;;4191357;28;20037;-76
2021/08/20 09:11:02;;;;;;;18.52;16.63;;;21.10;99.90;;;;;;4210338;28;20044;-76
2021/08/20 09:13:03;;;;;;;19.02;16.25;;;20.80;99.90;;;;;;4207850;28;20523;-75
2021/08/20 09:15:04;;;;;;;16.77;15.18;;;20.80;99.90;;;;;;4196197;28;20116;-76
2021/08/20 09:17:05;;;;;;;18.20;14.40;;;21.00;99.90;;;;;;4212696;28;20029;-76
2021/08/20 09:19:12;;;;;;;17.65;15.30;;;21.20;99.90;;;;;;4213344;28;20510;-76
2021/08/20 09:21:16;;;;;;;15.98;14.32;;;21.20;99.90;;;;;;4214509;28;20115;-72
2021/08/20 09:23:24;;;;;;;15.25;13.70;;;21.40;99.90;;;;;;4212947;28;20395;-73
2021/08/20 09:25:40;;;;;;;15.70;13.60;;;21.60;99.90;;;;;;4193340;28;20037;-73
2021/08/20 09:27:41;;;;;;;15.65;14.05;;;21.60;99.90;;;;;;4212339;28;20665;-73
2021/08/20 09:30:02;;;;;;;16.15;14.45;;;21.60;99.90;;;;;;4209853;28;20039;-71
2021/08/20 09:32:03;;;;;;;18.00;16.15;;;21.50;99.90;;;;;;4212312;28;20833;-74
2021/08/20 09:34:03;;;;;;;20.92;15.48;;;21.40;99.90;;;;;;4208614;28;20106;-73
2021/08/20 09:36:12;;;;;;;18.77;16.90;;;21.40;99.90;;;;;;4212753;28;20028;-74
2021/08/20 09:38:14;;;;;;;16.50;13.73;;;;;;;;;;4193840;28;20044;-71
2021/08/20 09:40:17;;;;;;;16.73;15.13;;;21.50;99.90;;;;;;4212252;28;20047;-73
2021/08/20 09:42:19;;;;;;;15.18;13.68;;;21.70;99.90;;;;;;4193517;28;20028;-75
2021/08/20 09:44:27;;;;;;;16.75;13.23;;;21.70;99.90;;;;;;4212606;28;20044;-73
2021/08/20 09:46:41;;;;;;;16.35;13.50;;;21.60;99.90;;;;;;4188751;28;20519;-74
2021/08/20 09:48:47;;;;;;;18.50;14.35;;;21.70;99.90;;;;;;4204597;28;20483;-73
2021/08/20 09:50:48;;;;;;;17.75;14.88;;;21.60;99.90;;;;;;4210981;28;20467;-73
2021/08/20 09:52:49;;;;;;;16.45;12.27;;;21.70;99.90;;;;;;4209073;28;20028;-74
2021/08/20 09:54:50;;;;;;;14.57;12.60;;;21.80;99.90;;;;;;4210447;28;20021;-73
2021/08/20 09:56:51;;;;;;;13.05;11.57;;;21.90;99.90;;;;;;4213969;28;20036;-73
2021/08/20 09:58:54;;;;;;;15.45;12.73;;;22.10;99.90;;;;;;4193987;28;20579;-73
2021/08/20 10:00:55;;;;;;;13.80;12.40;;;22.60;99.90;;;;;;4210014;28;20395;-73
2021/08/20 10:02:56;;;;;;;13.48;11.65;;;23.00;99.90;;;;;;4211826;28;20032;-74
2021/08/20 10:04:59;;;;;;;12.82;10.98;;;23.10;99.90;;;;;;4192722;28;20504;-72
2021/08/20 10:07:00;;;;;;;14.23;11.63;;;23.20;99.90;;;;;;4196333;28;20037;-74
2021/08/20 10:09:03;;;;;;;14.23;12.00;;;;;;;;;;4211627;28;20024;-74
2021/08/20 10:11:04;;;;;;;12.23;10.98;;;24.20;99.90;;;;;;4188571;28;20051;-71
2021/08/20 10:13:06;;;;;;;13.95;12.32;;;24.80;99.90;;;;;;4211218;28;20502;-71
2021/08/20 10:15:07;;;;;;;12.57;11.38;;;24.90;99.90;;;;;;4205845;28;20025;-73